Souderton, Pennsylvania
Current Conditions -  °F | °C
As of 2:35 PM on Friday 24 Oct 2014 (Local Time) from KUKT Reporting Station
Clear Clear  
Wind Chill: 68°   Ceiling: Unl
Heat Index: 68°   Visibility: 10mi
Dew Point: 45°   Wind: 9mph
Humidity: 43%   Direction: 300°WNW
Pressure: 29.82"   Gusts: 18mph
Location:  40.31°N, 75.33°W
Report Text: KUKT 241835Z AUTO 30008G16KT 10SM CLR 20/07 A2982 RMK AO1
Loading
Personal Weather Stations






























Interactive Weather Map
Tropical Storm Tracking
New forecast layout! Learn more

10-Day Weather Forecast

Advertisements
Track Severe Weather on mobile